createdAt,value
2023-05-19T00:00:27.777Z,73.7975
2023-05-19T00:01:35.813Z,74.0990
2023-05-19T00:02:44.112Z,74.0950
2023-05-19T00:03:52.069Z,74.1105
2023-05-19T00:05:00.145Z,74.1173
2023-05-19T00:06:08.276Z,74.0289
2023-05-19T00:07:16.238Z,74.0386
2023-05-19T00:08:24.314Z,74.0920
2023-05-19T00:09:32.389Z,74.1146
2023-05-19T00:10:40.435Z,73.9635
2023-05-19T00:11:48.664Z,73.9064
2023-05-19T00:12:56.565Z,73.9105
2023-05-19T00:14:04.472Z,73.1160
2023-05-19T00:15:12.535Z,72.9147
2023-05-19T00:16:20.648Z,72.9169
2023-05-19T00:17:28.876Z,73.2165
2023-05-19T00:18:36.868Z,73.6854
2023-05-19T00:19:44.913Z,73.7402
2023-05-19T00:20:52.959Z,73.8115
2023-05-19T00:22:01.117Z,74.0641
2023-05-19T00:23:09.238Z,74.1798
2023-05-19T00:24:17.330Z,73.9545
2023-05-19T00:25:25.301Z,73.6531
2023-05-19T00:26:33.358Z,73.7971
2023-05-19T00:27:41.421Z,74.0211
2023-05-19T00:28:49.401Z,74.0878
2023-05-19T00:29:57.470Z,73.8642
2023-05-19T00:31:05.460Z,73.9259
2023-05-19T00:32:13.745Z,74.0443
2023-05-19T00:33:21.759Z,74.1686
2023-05-19T00:34:29.905Z,74.4302
2023-05-19T00:35:37.999Z,74.6165
2023-05-19T00:36:45.922Z,74.7021
2023-05-19T00:37:54.009Z,74.7199
2023-05-19T00:39:02.086Z,74.7671
2023-05-19T00:40:10.197Z,74.9384
2023-05-19T00:41:18.189Z,74.8391
2023-05-19T00:42:26.384Z,74.4684
2023-05-19T00:43:34.205Z,74.3087
2023-05-19T00:44:42.231Z,74.3461
2023-05-19T00:45:50.377Z,74.2733
2023-05-19T00:46:58.570Z,74.2173
2023-05-19T00:48:06.643Z,74.4163
2023-05-19T00:49:14.611Z,74.5498
2023-05-19T00:50:22.722Z,74.6805
2023-05-19T00:51:30.812Z,74.8334
2023-05-19T00:52:38.815Z,74.8001
2023-05-19T00:53:46.898Z,74.4896
2023-05-19T00:54:54.957Z,74.5395
2023-05-19T00:56:03.072Z,74.5360
2023-05-19T00:57:11.210Z,74.4951
2023-05-19T00:58:18.987Z,74.4512
2023-05-19T00:59:27.071Z,74.6415
2023-05-19T01:00:35.372Z,74.7354
2023-05-19T01:01:43.625Z,74.6858
2023-05-19T01:02:51.511Z,74.7272
2023-05-19T01:03:59.653Z,74.8549
2023-05-19T01:05:07.562Z,74.9615
2023-05-19T01:06:15.794Z,75.0930
2023-05-19T01:07:23.631Z,75.1487
2023-05-19T01:08:31.812Z,75.3262
2023-05-19T01:09:39.737Z,75.5448
2023-05-19T01:10:47.820Z,75.6798
2023-05-19T01:11:55.954Z,75.5460
2023-05-19T01:13:03.820Z,75.7095
2023-05-19T01:14:11.962Z,75.6724
2023-05-19T01:15:19.958Z,75.6069
2023-05-19T01:16:28.140Z,75.6839
2023-05-19T01:17:36.370Z,75.7737
2023-05-19T01:18:44.548Z,75.8472
2023-05-19T01:19:52.469Z,75.9367
2023-05-19T01:21:00.396Z,76.0732
2023-05-19T01:22:08.434Z,76.0361
2023-05-19T01:23:16.805Z,76.0457
2023-05-19T01:24:24.710Z,76.1110
2023-05-19T01:25:32.707Z,76.1443
2023-05-19T01:26:40.715Z,76.1692
2023-05-19T01:27:48.597Z,76.1946
2023-05-19T01:28:56.678Z,76.2164
2023-05-19T01:30:04.757Z,76.3058
2023-05-19T01:31:13.072Z,76.3919
2023-05-19T01:32:21.084Z,76.4945
2023-05-19T01:33:29.232Z,76.3169
2023-05-19T01:34:37.198Z,76.0187
2023-05-19T01:35:45.170Z,76.0256
2023-05-19T01:36:53.316Z,75.9812
2023-05-19T01:38:01.493Z,76.0117
2023-05-19T01:39:09.352Z,76.1070
2023-05-19T01:40:17.412Z,75.7799
2023-05-19T01:41:25.622Z,75.6873
2023-05-19T01:42:33.453Z,75.9725
2023-05-19T01:43:41.472Z,76.1557
2023-05-19T01:44:49.547Z,76.3431
2023-05-19T01:45:57.730Z,76.0624
2023-05-19T01:47:05.704Z,76.0659
2023-05-19T01:48:13.937Z,76.0089
2023-05-19T01:49:22.051Z,76.0430
2023-05-19T01:50:30.190Z,76.0396
2023-05-19T01:51:38.068Z,76.1007
2023-05-19T01:52:46.192Z,76.1087
2023-05-19T01:53:54.198Z,75.9755
2023-05-19T01:55:02.217Z,75.8713
2023-05-19T01:56:10.335Z,75.6699
2023-05-19T01:57:18.230Z,75.7419
2023-05-19T01:58:26.298Z,75.8287
2023-05-19T01:59:34.367Z,75.9494
2023-05-19T02:00:42.536Z,75.8732
2023-05-19T02:01:50.564Z,75.9270
2023-05-19T02:02:58.725Z,75.9785
2023-05-19T02:04:06.765Z,76.0994
2023-05-19T02:05:14.975Z,76.1919
2023-05-19T02:06:22.819Z,76.2247
2023-05-19T02:07:30.971Z,76.1095
2023-05-19T02:08:38.992Z,76.1460
2023-05-19T02:09:47.051Z,76.1666
2023-05-19T02:10:55.155Z,76.2899
2023-05-19T02:12:03.070Z,76.1663
2023-05-19T02:13:11.100Z,76.1816
2023-05-19T02:14:19.168Z,76.1515
2023-05-19T02:15:27.371Z,76.1549
2023-05-19T02:16:35.448Z,76.1776
2023-05-19T02:17:43.679Z,76.1083
2023-05-19T02:18:51.622Z,76.2713
2023-05-19T02:19:59.619Z,76.1600
2023-05-19T02:21:07.881Z,76.1238
2023-05-19T02:22:15.802Z,76.1622
2023-05-19T02:23:23.813Z,76.2079
2023-05-19T02:24:31.881Z,76.0626
2023-05-19T02:25:39.943Z,75.9511
2023-05-19T02:26:47.859Z,75.8586
2023-05-19T02:27:55.980Z,75.5687
2023-05-19T02:29:04.011Z,75.7613
2023-05-19T02:30:12.459Z,75.9867
2023-05-19T02:31:20.304Z,76.0214
2023-05-19T02:32:28.351Z,75.9436
2023-05-19T02:33:36.459Z,75.8579
2023-05-19T02:34:44.465Z,75.9394
2023-05-19T02:35:52.523Z,76.0039
2023-05-19T02:37:00.728Z,76.1811
2023-05-19T02:38:08.641Z,76.1904
2023-05-19T02:39:16.732Z,76.1334
2023-05-19T02:40:24.729Z,76.0346
2023-05-19T02:41:32.693Z,75.8732
2023-05-19T02:42:40.756Z,75.6567
2023-05-19T02:43:48.807Z,75.6983
2023-05-19T02:44:57.090Z,75.6506
2023-05-19T02:46:05.118Z,75.7850
2023-05-19T02:47:13.119Z,76.0111
2023-05-19T02:48:21.077Z,76.0198
2023-05-19T02:49:29.259Z,76.0458
2023-05-19T02:50:37.343Z,75.6820
2023-05-19T02:51:45.527Z,75.4678
2023-05-19T02:52:53.498Z,75.6606
2023-05-19T02:54:01.630Z,75.7944
2023-05-19T02:55:09.559Z,75.9244
2023-05-19T02:56:17.688Z,75.7395
2023-05-19T02:57:25.572Z,75.7852
2023-05-19T02:58:33.650Z,75.8452
2023-05-19T02:59:42.102Z,75.9569
2023-05-19T03:00:49.881Z,75.8124
2023-05-19T03:01:58.015Z,75.8797
2023-05-19T03:03:06.096Z,76.0578
2023-05-19T03:04:14.082Z,76.3220
2023-05-19T03:05:22.132Z,76.2030
2023-05-19T03:06:30.212Z,76.2613
2023-05-19T03:07:38.349Z,76.2476
2023-05-19T03:08:46.306Z,76.3428
2023-05-19T03:09:54.383Z,76.4962
2023-05-19T03:11:02.328Z,76.6735
2023-05-19T03:12:10.395Z,76.6356
2023-05-19T03:13:18.446Z,76.1263
2023-05-19T03:14:26.611Z,75.9417
2023-05-19T03:15:34.695Z,76.0533
2023-05-19T03:16:42.784Z,76.1322
2023-05-19T03:17:50.933Z,76.1643
2023-05-19T03:18:58.984Z,76.0297
2023-05-19T03:20:06.931Z,76.0969
2023-05-19T03:21:14.847Z,76.1555
2023-05-19T03:22:23.010Z,76.1867
2023-05-19T03:23:31.099Z,76.0917
2023-05-19T03:24:39.201Z,75.9696
2023-05-19T03:25:47.068Z,76.0308
2023-05-19T03:26:55.160Z,76.2185
2023-05-19T03:28:03.173Z,76.3571
2023-05-19T03:29:11.476Z,76.2044
2023-05-19T03:30:19.461Z,76.1785
2023-05-19T03:31:27.504Z,76.1908
2023-05-19T03:32:35.604Z,76.0187
2023-05-19T03:33:43.853Z,75.9401
2023-05-19T03:34:51.800Z,75.7366
2023-05-19T03:35:59.786Z,75.9282
2023-05-19T03:37:07.860Z,75.8123
2023-05-19T03:38:15.871Z,75.6475
2023-05-19T03:39:23.914Z,75.8243
2023-05-19T03:40:32.136Z,76.1129
2023-05-19T03:41:39.934Z,76.0400
2023-05-19T03:42:47.963Z,76.0648
2023-05-19T03:43:56.190Z,75.9521
2023-05-19T03:45:04.226Z,75.9816
2023-05-19T03:46:12.334Z,76.0581
2023-05-19T03:47:20.452Z,75.9065
2023-05-19T03:48:28.390Z,76.0288
2023-05-19T03:49:36.442Z,76.1842
2023-05-19T03:50:44.837Z,76.1960
2023-05-19T03:51:52.637Z,76.3355
2023-05-19T03:53:00.679Z,76.3676
2023-05-19T03:54:08.672Z,76.3443
2023-05-19T03:55:16.634Z,76.4601
2023-05-19T03:56:24.678Z,76.1472
2023-05-19T03:57:32.774Z,76.1420
2023-05-19T03:58:40.969Z,76.2286
2023-05-19T03:59:49.011Z,76.3151
2023-05-19T04:00:57.054Z,76.3919
2023-05-19T04:02:05.586Z,76.3880
2023-05-19T04:03:13.265Z,76.5070
2023-05-19T04:04:21.274Z,76.5179
2023-05-19T04:05:29.301Z,76.4698
2023-05-19T04:06:37.331Z,76.4736
2023-05-19T04:07:45.623Z,76.4238
2023-05-19T04:08:53.501Z,76.5788
2023-05-19T04:10:01.423Z,76.7492
2023-05-19T04:11:09.468Z,76.7846
2023-05-19T04:12:17.552Z,76.8764
2023-05-19T04:13:25.943Z,76.7048
2023-05-19T04:14:33.829Z,76.7315
2023-05-19T04:15:41.918Z,76.8245
2023-05-19T04:16:49.905Z,76.7676
2023-05-19T04:17:58.015Z,76.7947
2023-05-19T04:19:06.149Z,76.8279
2023-05-19T04:20:14.223Z,76.8069
2023-05-19T04:21:22.153Z,76.8745
2023-05-19T04:22:30.205Z,77.0062
2023-05-19T04:23:38.477Z,77.0159
2023-05-19T04:24:46.253Z,77.1110
2023-05-19T04:25:54.330Z,77.0938
2023-05-19T04:27:02.374Z,77.0637
2023-05-19T04:28:10.527Z,76.8512
2023-05-19T04:29:18.791Z,76.9058
2023-05-19T04:30:26.767Z,76.8819
2023-05-19T04:31:34.999Z,76.8548
2023-05-19T04:32:42.845Z,76.8911
2023-05-19T04:33:50.924Z,76.7051
2023-05-19T04:34:58.961Z,76.7508
2023-05-19T04:36:07.003Z,76.8506
2023-05-19T04:37:15.146Z,76.9519
2023-05-19T04:38:23.157Z,77.0069
2023-05-19T04:39:31.070Z,77.0781
2023-05-19T04:40:39.158Z,77.1064
2023-05-19T04:41:47.242Z,77.1002
2023-05-19T04:42:55.411Z,77.0587
2023-05-19T04:44:03.457Z,77.1063
2023-05-19T04:45:11.565Z,76.9071
2023-05-19T04:46:19.600Z,76.8806
2023-05-19T04:47:27.895Z,76.8717
2023-05-19T04:48:35.745Z,76.9769
2023-05-19T04:49:43.832Z,76.8924
2023-05-19T04:50:51.965Z,76.7872
2023-05-19T04:51:59.926Z,76.7545
2023-05-19T04:53:08.037Z,76.6054
2023-05-19T04:54:15.902Z,76.5564
2023-05-19T04:55:23.966Z,76.3493
2023-05-19T04:56:32.024Z,76.3679
2023-05-19T04:57:40.245Z,76.0248
2023-05-19T04:58:48.317Z,75.7409
2023-05-19T04:59:56.578Z,75.7982
2023-05-19T05:01:04.380Z,75.7711
2023-05-19T05:02:12.607Z,75.8278
2023-05-19T05:03:20.695Z,75.9438
2023-05-19T05:04:28.617Z,76.1184
2023-05-19T05:05:36.769Z,75.9998
2023-05-19T05:06:44.689Z,75.9124
2023-05-19T05:07:52.811Z,75.6848
2023-05-19T05:09:00.699Z,75.7014
2023-05-19T05:10:08.780Z,75.5297
2023-05-19T05:11:16.815Z,75.4407
2023-05-19T05:12:25.000Z,75.2299
2023-05-19T05:13:33.082Z,75.3161
2023-05-19T05:14:41.145Z,75.2607
2023-05-19T05:15:49.210Z,74.9557
2023-05-19T05:16:57.385Z,74.7786
2023-05-19T05:18:05.381Z,74.7351
2023-05-19T05:19:13.595Z,74.7586
2023-05-19T05:20:21.528Z,74.7026
2023-05-19T05:21:29.503Z,74.7267
2023-05-19T05:22:37.555Z,74.3718
2023-05-19T05:23:45.519Z,74.5448
2023-05-19T05:24:53.554Z,74.4015
2023-05-19T05:26:01.614Z,74.4889
2023-05-19T05:27:10.095Z,74.7336
2023-05-19T05:28:17.929Z,74.7300
2023-05-19T05:29:25.986Z,74.7545
2023-05-19T05:30:33.957Z,74.6497
2023-05-19T05:31:42.094Z,74.4243
2023-05-19T05:32:50.211Z,74.3413
2023-05-19T05:33:58.217Z,74.1575
2023-05-19T05:35:06.240Z,74.0937
2023-05-19T05:36:14.434Z,74.4295
2023-05-19T05:37:22.371Z,74.4652
2023-05-19T05:38:30.304Z,74.3769
2023-05-19T05:39:38.365Z,74.2922
2023-05-19T05:40:46.395Z,74.3944
2023-05-19T05:41:54.616Z,74.3041
2023-05-19T05:43:02.641Z,74.2752
2023-05-19T05:44:10.700Z,73.8556
2023-05-19T05:45:18.816Z,73.8107
2023-05-19T05:46:27.076Z,73.4582
2023-05-19T05:47:34.913Z,73.4703
2023-05-19T05:48:43.035Z,73.7037
2023-05-19T05:49:52.995Z,73.8478
2023-05-19T05:51:03.929Z,74.0636
2023-05-19T05:52:11.836Z,74.2003
2023-05-19T05:53:19.940Z,74.3216
2023-05-19T05:54:28.014Z,74.3882
2023-05-19T05:55:36.185Z,74.1972
2023-05-19T05:56:44.239Z,74.3271
2023-05-19T05:57:52.305Z,74.3818
2023-05-19T05:59:00.414Z,74.3084
2023-05-19T06:00:08.574Z,73.8887
2023-05-19T06:01:16.506Z,73.9535
2023-05-19T06:02:24.579Z,73.8659
2023-05-19T06:03:32.708Z,73.9106
2023-05-19T06:04:40.769Z,74.0919
2023-05-19T06:05:48.777Z,73.9861
2023-05-19T06:06:56.638Z,73.7639
2023-05-19T06:08:04.780Z,73.7464
2023-05-19T06:09:12.820Z,73.6351
2023-05-19T06:10:20.942Z,73.5134
2023-05-19T06:11:29.040Z,73.3402
2023-05-19T06:12:37.100Z,73.4125
2023-05-19T06:13:45.337Z,73.5646
2023-05-19T06:14:53.197Z,73.5521
2023-05-19T06:16:02.244Z,73.5931
2023-05-19T06:17:09.329Z,73.4465
2023-05-19T06:18:17.448Z,73.1818
2023-05-19T06:19:25.640Z,73.1035
2023-05-19T06:20:33.567Z,73.1764
2023-05-19T06:21:41.415Z,73.1250
2023-05-19T06:22:49.511Z,73.3939
2023-05-19T06:23:57.730Z,73.4925
2023-05-19T06:25:05.921Z,73.2497
2023-05-19T06:26:13.803Z,72.9659
2023-05-19T06:27:21.831Z,72.8531
2023-05-19T06:28:29.967Z,72.5973
2023-05-19T06:29:38.079Z,72.8386
2023-05-19T06:30:46.052Z,73.1872
2023-05-19T06:31:54.250Z,73.0764
2023-05-19T06:33:02.177Z,72.7977
2023-05-19T06:34:10.251Z,72.7376
2023-05-19T06:35:18.193Z,73.0207
2023-05-19T06:36:26.225Z,73.1905
2023-05-19T06:37:34.301Z,73.3054
2023-05-19T06:38:42.467Z,73.3630
2023-05-19T06:39:50.505Z,72.8625
2023-05-19T06:40:58.830Z,72.7974
2023-05-19T06:42:06.671Z,72.5718
2023-05-19T06:43:14.705Z,72.6940
2023-05-19T06:44:22.752Z,72.6871
2023-05-19T06:45:30.790Z,72.4697
2023-05-19T06:46:39.204Z,72.7374
2023-05-19T06:47:46.982Z,72.9303
2023-05-19T06:48:55.170Z,72.8587
2023-05-19T06:50:02.969Z,72.3087
2023-05-19T06:51:11.027Z,72.4615
2023-05-19T06:52:19.104Z,72.5462
2023-05-19T06:53:27.276Z,72.5514
2023-05-19T06:54:35.344Z,72.6984
2023-05-19T06:55:57.540Z,73.0263
2023-05-19T06:56:56.528Z,73.2032
2023-05-19T06:58:04.394Z,72.9045
2023-05-19T06:59:12.448Z,72.7465
2023-05-19T07:00:22.894Z,72.9353
2023-05-19T07:01:33.643Z,72.8324
2023-05-19T07:02:41.660Z,73.0658
2023-05-19T07:03:49.488Z,72.9152
2023-05-19T07:04:57.486Z,72.3235
2023-05-19T07:06:07.931Z,71.9697
2023-05-19T07:07:18.544Z,72.1331
2023-05-19T07:08:26.679Z,72.2487
2023-05-19T07:09:34.932Z,72.5024
2023-05-19T07:10:42.819Z,72.7016
2023-05-19T07:11:50.851Z,72.6725
2023-05-19T07:12:59.040Z,72.6738
2023-05-19T07:14:06.900Z,72.4826
2023-05-19T07:15:14.927Z,72.4262
2023-05-19T07:16:23.037Z,72.1687
2023-05-19T07:17:31.040Z,72.0623
2023-05-19T07:18:39.145Z,72.1113
2023-05-19T07:19:47.221Z,72.4016
2023-05-19T07:20:55.214Z,72.4457
2023-05-19T07:22:03.470Z,71.6677
2023-05-19T07:23:11.477Z,71.4491
2023-05-19T07:24:19.469Z,71.2853
2023-05-19T07:25:27.552Z,71.2527
2023-05-19T07:26:35.642Z,71.4372
2023-05-19T07:27:43.768Z,71.1541
2023-05-19T07:28:51.712Z,71.2887
2023-05-19T07:29:59.812Z,71.7486
2023-05-19T07:31:07.753Z,71.5121
2023-05-19T07:32:15.876Z,71.4917
2023-05-19T07:33:23.925Z,71.5792
2023-05-19T07:34:32.074Z,71.5660
2023-05-19T07:35:40.147Z,71.5461
2023-05-19T07:36:48.182Z,71.0225
2023-05-19T07:37:56.352Z,70.9534
2023-05-19T07:39:04.344Z,70.8256
2023-05-19T07:40:12.372Z,70.5208
2023-05-19T07:41:20.387Z,70.5147
2023-05-19T07:42:28.545Z,70.2350
2023-05-19T07:43:36.598Z,69.9466
2023-05-19T07:44:44.809Z,69.9089
2023-05-19T07:45:52.776Z,69.8926
2023-05-19T07:47:00.687Z,69.4930
2023-05-19T07:48:08.987Z,69.5982
2023-05-19T07:49:16.726Z,69.0158
2023-05-19T07:50:24.792Z,68.5969
2023-05-19T07:51:32.868Z,68.2615
2023-05-19T07:52:41.151Z,68.2854
2023-05-19T07:53:49.154Z,68.4377
2023-05-19T07:54:57.144Z,68.7254
2023-05-19T07:56:05.391Z,68.6332
2023-05-19T07:57:13.376Z,68.0933
2023-05-19T07:58:21.337Z,67.9598
2023-05-19T07:59:29.386Z,67.8314
2023-05-19T08:00:37.540Z,67.6515
2023-05-19T08:01:45.519Z,67.4892
2023-05-19T08:02:53.674Z,67.0077
2023-05-19T08:04:01.580Z,67.1581
2023-05-19T08:05:09.573Z,67.3983
2023-05-19T08:06:17.674Z,67.3998
2023-05-19T08:07:26.023Z,67.5083
2023-05-19T08:08:34.084Z,67.7251
2023-05-19T08:09:41.946Z,67.8378
2023-05-19T08:10:50.058Z,67.8903
2023-05-19T08:11:58.193Z,68.1577
2023-05-19T08:13:06.102Z,68.2640
2023-05-19T08:14:14.173Z,67.6647
2023-05-19T08:15:22.308Z,67.7158
2023-05-19T08:16:30.635Z,67.1119
2023-05-19T08:17:38.319Z,66.2170
2023-05-19T08:18:46.387Z,66.3635
2023-05-19T08:19:54.332Z,66.7082
2023-05-19T08:21:02.541Z,67.0840
2023-05-19T08:22:10.615Z,67.0692
2023-05-19T08:23:18.685Z,67.0083
2023-05-19T08:24:26.792Z,67.1599
2023-05-19T08:25:34.812Z,67.0519
2023-05-19T08:26:42.879Z,66.6965
2023-05-19T08:27:51.089Z,66.4594
2023-05-19T08:28:59.029Z,66.4678
2023-05-19T08:30:07.024Z,66.6705
2023-05-19T08:31:15.247Z,66.8434
2023-05-19T08:32:23.099Z,66.5571
2023-05-19T08:33:31.083Z,66.4185
2023-05-19T08:34:39.139Z,66.2782
2023-05-19T08:35:47.489Z,66.7533
2023-05-19T08:36:55.546Z,66.6161
2023-05-19T08:38:03.453Z,66.8848
2023-05-19T08:39:11.591Z,66.9809
2023-05-19T08:40:19.656Z,66.8970
2023-05-19T08:41:27.820Z,66.7025
2023-05-19T08:42:35.767Z,66.6405
2023-05-19T08:43:43.831Z,66.7058
2023-05-19T08:44:52.187Z,66.3566
2023-05-19T08:45:59.896Z,66.5120
2023-05-19T08:47:08.021Z,66.5204
2023-05-19T08:48:16.003Z,66.4964
2023-05-19T08:49:25.570Z,66.5854
2023-05-19T08:50:32.506Z,66.2421
2023-05-19T08:51:40.155Z,66.0135
2023-05-19T08:52:51.796Z,65.6705
2023-05-19T08:54:01.288Z,65.4575
2023-05-19T08:55:09.340Z,65.9179
2023-05-19T08:56:17.331Z,66.1264
2023-05-19T08:57:25.475Z,66.2552
2023-05-19T08:58:33.515Z,65.7746
2023-05-19T08:59:41.402Z,65.2920
2023-05-19T09:00:49.517Z,65.0406
2023-05-19T09:01:57.578Z,64.8664
2023-05-19T09:04:13.911Z,64.9072
2023-05-19T09:05:21.914Z,64.7975
2023-05-19T09:06:29.921Z,64.3303
2023-05-19T09:07:38.072Z,64.7293
2023-05-19T09:08:45.998Z,64.9475
2023-05-19T09:09:54.349Z,64.6040
2023-05-19T09:11:02.171Z,64.8310
2023-05-19T09:12:10.291Z,64.6856
2023-05-19T09:13:18.255Z,64.5740
2023-05-19T09:14:26.216Z,64.7991
2023-05-19T09:15:34.602Z,64.9949
2023-05-19T09:16:42.389Z,64.7386
2023-05-19T09:17:50.640Z,65.1910
2023-05-19T09:18:58.621Z,64.6249
2023-05-19T09:20:06.680Z,63.9164
2023-05-19T09:21:14.716Z,63.8661
2023-05-19T09:22:22.836Z,63.7846
2023-05-19T09:23:30.819Z,64.4170
2023-05-19T09:24:38.863Z,64.7398
2023-05-19T09:25:46.981Z,64.5412
2023-05-19T09:26:55.756Z,64.8428
2023-05-19T09:28:07.868Z,64.7767
2023-05-19T09:29:15.853Z,64.9823
2023-05-19T09:30:23.885Z,64.8632
2023-05-19T09:31:32.161Z,65.1149
2023-05-19T09:32:40.165Z,64.9845
2023-05-19T09:33:48.281Z,65.4081
2023-05-19T09:34:56.529Z,65.2168
2023-05-19T09:36:04.320Z,65.0856
2023-05-19T09:37:12.370Z,64.8817
2023-05-19T09:38:20.564Z,65.0734
2023-05-19T09:39:28.553Z,65.2551
2023-05-19T09:40:36.607Z,65.5351
2023-05-19T09:41:44.667Z,65.7880
2023-05-19T09:42:52.572Z,65.7119
2023-05-19T09:44:00.678Z,65.3658
2023-05-19T09:45:08.678Z,65.0883
2023-05-19T09:46:16.885Z,65.0615
2023-05-19T09:47:24.903Z,64.6143
2023-05-19T09:48:32.991Z,64.8151
2023-05-19T09:49:41.279Z,64.3459
2023-05-19T09:50:49.260Z,64.0354
2023-05-19T09:51:57.195Z,63.7784
2023-05-19T09:53:05.261Z,63.0914
2023-05-19T09:54:13.385Z,63.0076
2023-05-19T09:55:21.358Z,63.5014
2023-05-19T09:56:29.442Z,63.3737
2023-05-19T09:57:37.358Z,63.3957
2023-05-19T09:58:45.414Z,64.0055
2023-05-19T09:59:53.487Z,64.3507
2023-05-19T10:01:01.631Z,64.7665
2023-05-19T10:02:09.760Z,65.0796
2023-05-19T10:03:17.828Z,64.6192
2023-05-19T10:04:25.922Z,64.4702
2023-05-19T10:05:34.320Z,64.4776
2023-05-19T10:06:42.296Z,63.8974
2023-05-19T10:07:50.044Z,63.7740
2023-05-19T10:08:58.157Z,63.7396
2023-05-19T10:10:06.175Z,63.7077
2023-05-19T10:11:14.209Z,63.6577
2023-05-19T10:12:22.159Z,64.2013
2023-05-19T10:13:30.232Z,63.9022
2023-05-19T10:14:38.275Z,63.3037
2023-05-19T10:15:57.327Z,63.2707
2023-05-19T10:16:59.481Z,63.5182
2023-05-19T10:18:07.545Z,63.6894
2023-05-19T10:19:15.548Z,63.7798
2023-05-19T10:20:23.573Z,64.1667
2023-05-19T10:21:31.667Z,63.8189
2023-05-19T10:22:39.753Z,63.5426
2023-05-19T10:23:47.895Z,63.0464
2023-05-19T10:24:55.820Z,63.6262
2023-05-19T10:26:03.754Z,63.5874
2023-05-19T10:27:11.834Z,63.3462
2023-05-19T10:28:19.921Z,63.4951
2023-05-19T10:29:28.129Z,63.8518
2023-05-19T10:30:36.110Z,64.1489
2023-05-19T10:31:44.338Z,63.9168
2023-05-19T10:32:52.308Z,64.1401
2023-05-19T10:34:00.398Z,64.0907
2023-05-19T10:35:08.460Z,64.1186
2023-05-19T10:36:16.535Z,64.1830
2023-05-19T10:37:24.538Z,64.3780
2023-05-19T10:38:32.543Z,64.4174
2023-05-19T10:39:40.657Z,64.4527
2023-05-19T10:40:48.543Z,64.6809
2023-05-19T10:41:56.629Z,64.3602
2023-05-19T10:43:04.672Z,64.4141
2023-05-19T10:44:12.916Z,64.2045
2023-05-19T10:45:21.127Z,64.7394
2023-05-19T10:46:28.959Z,64.8954
2023-05-19T10:47:37.046Z,64.5603
2023-05-19T10:48:45.125Z,64.2395
2023-05-19T10:49:53.344Z,63.5532
2023-05-19T10:51:01.272Z,63.4716
2023-05-19T10:52:09.369Z,63.4499
2023-05-19T10:53:17.349Z,63.8670
2023-05-19T10:54:25.689Z,62.9683
2023-05-19T10:55:33.525Z,62.7554
2023-05-19T10:56:41.443Z,62.9222
2023-05-19T10:57:49.510Z,62.7248
2023-05-19T10:58:57.644Z,63.0703
2023-05-19T11:00:05.692Z,62.8612
2023-05-19T11:01:13.837Z,62.4105
2023-05-19T11:02:21.807Z,62.0486
2023-05-19T11:04:37.913Z,61.5715
2023-05-19T11:05:46.011Z,61.6857
2023-05-19T11:06:54.117Z,61.4814
2023-05-19T11:08:02.201Z,61.7740
2023-05-19T11:09:10.160Z,61.6709
2023-05-19T11:10:18.133Z,62.0970
2023-05-19T11:11:26.202Z,62.1549
2023-05-19T11:12:34.210Z,62.7539
2023-05-19T11:13:42.405Z,62.5486
2023-05-19T11:14:50.451Z,62.3709
2023-05-19T11:15:58.562Z,62.3379
2023-05-19T11:17:06.728Z,61.9761
2023-05-19T11:18:14.703Z,62.0850
2023-05-19T11:19:22.886Z,62.3778
2023-05-19T11:20:30.794Z,61.7127
2023-05-19T11:21:38.962Z,61.6125
2023-05-19T11:22:46.892Z,61.9990
2023-05-19T11:23:55.121Z,62.2372
2023-05-19T11:25:02.865Z,62.0830
2023-05-19T11:26:10.961Z,62.3438
2023-05-19T11:27:19.109Z,62.3245
2023-05-19T11:28:27.277Z,62.4763
2023-05-19T11:29:35.245Z,62.7007
2023-05-19T11:30:43.347Z,62.6707
2023-05-19T11:31:51.555Z,62.6967
2023-05-19T11:32:59.442Z,63.0539
2023-05-19T11:34:07.503Z,63.3948
2023-05-19T11:35:15.668Z,63.0739
2023-05-19T11:36:23.630Z,62.0377
2023-05-19T11:37:31.675Z,61.9658
2023-05-19T11:38:39.690Z,61.7774
2023-05-19T11:39:47.689Z,62.0116
2023-05-19T11:40:55.749Z,61.7770
2023-05-19T11:42:03.824Z,61.6424
2023-05-19T11:43:11.915Z,61.4549
2023-05-19T11:44:20.007Z,61.9042
2023-05-19T11:45:28.079Z,61.7002
2023-05-19T11:46:36.472Z,61.1639
2023-05-19T11:48:00.827Z,60.6114
2023-05-19T11:48:57.393Z,60.5155
2023-05-19T11:50:05.215Z,60.6487
2023-05-19T11:51:13.335Z,60.7179
2023-05-19T11:52:21.383Z,59.8263
2023-05-19T11:53:29.246Z,59.4607
2023-05-19T11:54:37.332Z,58.6438
2023-05-19T11:55:45.803Z,58.2463
2023-05-19T11:56:53.713Z,57.9097
2023-05-19T11:58:04.649Z,57.7368
2023-05-19T11:59:14.546Z,56.9249
2023-05-19T12:00:22.573Z,56.1307
2023-05-19T12:01:30.637Z,55.4640
2023-05-19T12:02:38.864Z,55.0935
2023-05-19T12:03:46.922Z,54.8016
2023-05-19T12:04:54.963Z,54.4266
2023-05-19T12:06:02.961Z,53.3924
2023-05-19T12:07:10.847Z,53.3489
2023-05-19T12:08:18.997Z,53.5479
2023-05-19T12:09:27.030Z,53.7684
2023-05-19T12:10:35.133Z,53.5854
2023-05-19T12:11:43.207Z,53.9636
2023-05-19T12:12:51.226Z,54.1634
2023-05-19T12:13:59.325Z,54.0212
2023-05-19T12:15:07.347Z,54.5102
2023-05-19T12:16:15.522Z,54.8794
2023-05-19T12:17:23.602Z,55.5765
2023-05-19T12:18:31.520Z,56.1428
2023-05-19T12:19:39.593Z,56.2412
2023-05-19T12:20:47.776Z,56.0213
2023-05-19T12:21:55.675Z,56.1972
2023-05-19T12:23:03.850Z,55.8094
2023-05-19T12:24:11.812Z,55.4695
2023-05-19T12:25:19.857Z,55.3670
2023-05-19T12:26:28.049Z,55.3507
2023-05-19T12:27:35.971Z,55.0997
2023-05-19T12:28:44.156Z,54.8776
2023-05-19T12:29:52.170Z,53.7713
2023-05-19T12:31:00.332Z,53.8645
2023-05-19T12:32:08.425Z,54.3139
2023-05-19T12:33:16.468Z,54.7752
2023-05-19T12:34:24.417Z,54.5982
2023-05-19T12:35:32.488Z,53.9826
2023-05-19T12:36:40.494Z,53.9931
2023-05-19T12:37:48.524Z,53.5654
2023-05-19T12:38:56.560Z,53.1282
2023-05-19T12:40:04.845Z,52.6582
2023-05-19T12:41:13.023Z,52.2128
2023-05-19T12:42:20.831Z,52.7946
2023-05-19T12:43:28.962Z,52.9283
2023-05-19T12:44:36.963Z,52.7558
2023-05-19T12:45:45.129Z,52.5898
2023-05-19T12:46:53.235Z,53.6481
2023-05-19T12:48:01.372Z,54.3011
2023-05-19T12:49:09.313Z,54.3680
2023-05-19T12:50:17.390Z,54.0675
2023-05-19T12:51:25.367Z,54.4270
2023-05-19T12:52:33.385Z,54.9371
2023-05-19T12:53:41.436Z,55.3715
2023-05-19T12:54:49.629Z,55.7612
2023-05-19T12:55:57.746Z,55.8420
2023-05-19T12:57:05.913Z,55.8613
2023-05-19T12:58:13.874Z,55.6344
2023-05-19T12:59:37.093Z,55.2021
2023-05-19T13:00:34.987Z,55.7746
2023-05-19T13:01:42.912Z,56.5454
2023-05-19T13:02:51.110Z,56.7350
2023-05-19T13:03:59.206Z,56.0606
2023-05-19T13:05:06.920Z,56.4828
2023-05-19T13:06:14.991Z,56.8767
2023-05-19T13:07:23.042Z,56.4964
2023-05-19T13:08:31.469Z,57.0468
2023-05-19T13:09:39.274Z,57.4922
2023-05-19T13:10:47.589Z,57.9467
2023-05-19T13:11:55.450Z,58.3419
2023-05-19T13:13:03.552Z,58.5552
2023-05-19T13:14:11.515Z,58.9090
2023-05-19T13:15:19.595Z,59.4611
2023-05-19T13:16:27.671Z,60.0398
2023-05-19T13:17:35.768Z,60.4740
2023-05-19T13:18:43.816Z,60.8607
2023-05-19T13:19:51.824Z,61.2911
2023-05-19T13:20:59.819Z,61.8687
2023-05-19T13:22:07.951Z,61.6486
2023-05-19T13:23:16.212Z,61.7796
2023-05-19T13:24:24.336Z,62.0725
2023-05-19T13:25:32.220Z,62.2992
2023-05-19T13:26:40.265Z,62.8297
2023-05-19T13:27:48.334Z,62.5381
2023-05-19T13:28:56.361Z,62.8905
2023-05-19T13:30:04.451Z,62.8208
2023-05-19T13:31:12.533Z,62.6931
2023-05-19T13:32:20.639Z,61.9904
2023-05-19T13:33:28.504Z,62.5104
2023-05-19T13:34:36.539Z,62.7779
2023-05-19T13:35:44.636Z,63.0835
2023-05-19T13:36:52.709Z,63.1029
2023-05-19T13:38:00.897Z,63.3136
2023-05-19T13:39:09.077Z,63.4376
2023-05-19T13:40:17.042Z,63.3396
2023-05-19T13:41:25.044Z,63.1663
2023-05-19T13:42:33.148Z,63.0209
2023-05-19T13:43:41.211Z,63.1166
2023-05-19T13:44:49.237Z,63.7729
2023-05-19T13:45:57.454Z,63.6576